Terminal Aerodrome Forecast
Issued by NWS Omaha/Valley, NE

Home | Current Version | Previous Version | Text Only | Print | Product List | Glossary On
Versions: 1 2 3 4 5 6 7 8 9 10 11 12 13 14 15 16 17 18 19 20 21 22 23 24 25
000
FTUS43 KOAX 280520
TAFOMA
TAF
KOMA 280520Z 2806/2906 VRB03KT P6SM BKN025
      TEMPO 2806/2808 SCT025 BKN200
     FM280800 09004KT P6SM OVC025
     FM281400 08004KT 6SM BR OVC020
     FM282100 10009KT P6SM OVC025=

USA.gov is the U.S. government's official web portal to all federal, state and local government web resources and services.